createdAt,value
2022-08-22T00:01:28.534Z,18.49
2022-08-22T00:02:44.824Z,21.32
2022-08-22T00:03:04.819Z,20.77
2022-08-22T00:03:12.286Z,19.72
2022-08-22T00:04:04.340Z,18.50
2022-08-22T00:06:48.245Z,18.51
2022-08-22T00:09:47.122Z,18.52
2022-08-22T00:12:29.054Z,18.52
2022-08-22T00:15:42.997Z,18.52
2022-08-22T00:18:39.189Z,18.52
2022-08-22T00:21:13.459Z,18.52
2022-08-22T00:23:46.820Z,18.51
2022-08-22T00:26:32.611Z,18.50
2022-08-22T00:29:08.318Z,18.48
2022-08-22T00:31:40.765Z,18.47
2022-08-22T00:34:17.107Z,18.45
2022-08-22T00:36:52.575Z,18.44
2022-08-22T00:39:27.559Z,18.42
2022-08-22T00:42:31.232Z,18.39
2022-08-22T00:45:36.483Z,18.36
2022-08-22T00:48:26.603Z,18.33
2022-08-22T00:51:32.372Z,18.32
2022-08-22T00:54:31.597Z,18.31
2022-08-22T00:57:20.016Z,18.29
2022-08-22T00:59:58.753Z,18.28
2022-08-22T01:02:44.175Z,18.26
2022-08-22T01:05:16.977Z,18.26
2022-08-22T01:08:13.854Z,18.25
2022-08-22T01:11:10.111Z,18.23
2022-08-22T01:13:51.668Z,18.22
2022-08-22T01:16:35.266Z,18.21
2022-08-22T01:19:23.325Z,18.21
2022-08-22T01:22:09.399Z,18.21
2022-08-22T01:25:21.449Z,18.22
2022-08-22T01:28:43.661Z,18.23
2022-08-22T01:31:29.038Z,18.23
2022-08-22T01:34:12.783Z,18.24
2022-08-22T01:37:01.166Z,18.25
2022-08-22T01:39:33.789Z,18.26
2022-08-22T01:42:03.502Z,18.27
2022-08-22T01:44:45.364Z,18.28
2022-08-22T01:47:42.018Z,18.29
2022-08-22T01:50:24.931Z,18.30
2022-08-22T01:52:58.731Z,18.30
2022-08-22T01:55:54.255Z,18.30
2022-08-22T01:58:26.544Z,18.29
2022-08-22T02:00:59.252Z,18.28
2022-08-22T02:03:38.361Z,18.28
2022-08-22T02:06:14.467Z,18.26
2022-08-22T02:08:59.940Z,18.26
2022-08-22T02:11:56.078Z,18.24
2022-08-22T02:14:32.219Z,18.22
2022-08-22T02:17:25.324Z,18.21
2022-08-22T02:19:55.104Z,18.19
2022-08-22T02:23:00.348Z,18.18
2022-08-22T02:25:32.453Z,18.16
2022-08-22T02:28:16.486Z,18.15
2022-08-22T02:30:54.907Z,18.14
2022-08-22T02:33:29.611Z,18.12
2022-08-22T02:36:18.233Z,18.12
2022-08-22T02:38:52.338Z,18.11
2022-08-22T02:41:46.789Z,18.11
2022-08-22T02:44:27.154Z,18.10
2022-08-22T02:47:06.076Z,18.10
2022-08-22T02:49:53.703Z,18.10
2022-08-22T02:52:53.493Z,18.11
2022-08-22T02:55:29.624Z,18.11
2022-08-22T02:58:08.505Z,18.12
2022-08-22T03:00:52.068Z,18.13
2022-08-22T03:03:28.614Z,18.14
2022-08-22T03:06:34.024Z,18.13
2022-08-22T03:09:16.375Z,18.12
2022-08-22T03:11:51.656Z,18.11
2022-08-22T03:14:27.064Z,18.11
2022-08-22T03:17:00.564Z,18.11
2022-08-22T03:19:47.332Z,18.13
2022-08-22T03:22:30.684Z,18.12
2022-08-22T03:25:13.757Z,18.13
2022-08-22T03:27:49.541Z,18.12
2022-08-22T03:30:28.136Z,18.12
2022-08-22T03:33:14.905Z,18.11
2022-08-22T03:35:41.611Z,18.11
2022-08-22T03:38:20.686Z,18.10
2022-08-22T03:41:09.441Z,18.09
2022-08-22T03:44:16.738Z,18.08
2022-08-22T03:46:46.306Z,18.07
2022-08-22T03:49:31.492Z,18.06
2022-08-22T03:53:06.489Z,18.06
2022-08-22T03:55:44.790Z,18.05
2022-08-22T03:58:33.797Z,18.03
2022-08-22T04:01:22.057Z,18.03
2022-08-22T04:04:31.318Z,18.03
2022-08-22T04:07:19.672Z,18.03
2022-08-22T04:10:19.738Z,18.07
2022-08-22T04:13:39.726Z,18.16
2022-08-22T04:16:06.392Z,18.26
2022-08-22T04:18:35.729Z,18.37
2022-08-22T04:21:42.488Z,18.48
2022-08-22T04:24:42.935Z,18.62
2022-08-22T04:27:25.247Z,18.76
2022-08-22T04:29:58.106Z,18.88
2022-08-22T04:32:36.884Z,18.95
2022-08-22T04:35:34.386Z,19.00
2022-08-22T04:38:23.676Z,18.98
2022-08-22T04:41:01.406Z,18.95
2022-08-22T04:43:37.103Z,18.92
2022-08-22T04:46:38.390Z,18.89
2022-08-22T04:49:07.844Z,18.86
2022-08-22T04:51:46.091Z,18.83
2022-08-22T04:54:36.997Z,18.80
2022-08-22T04:57:31.078Z,18.79
2022-08-22T05:00:05.875Z,18.77
2022-08-22T05:02:37.077Z,18.77
2022-08-22T05:05:13.218Z,18.77
2022-08-22T05:07:46.730Z,18.78
2022-08-22T05:10:33.009Z,18.77
2022-08-22T05:13:36.111Z,18.76
2022-08-22T05:16:10.223Z,18.76
2022-08-22T05:18:46.910Z,18.76
2022-08-22T05:21:17.760Z,18.77
2022-08-22T05:24:07.807Z,18.78
2022-08-22T05:26:42.677Z,18.81
2022-08-22T05:29:11.633Z,18.86
2022-08-22T05:31:51.143Z,18.92
2022-08-22T05:34:28.011Z,19.04
2022-08-22T05:37:20.117Z,19.18
2022-08-22T05:39:53.506Z,19.31
2022-08-22T05:42:33.273Z,19.45
2022-08-22T05:45:02.659Z,19.60
2022-08-22T05:47:32.367Z,19.72
2022-08-22T05:50:07.291Z,19.81
2022-08-22T05:52:49.434Z,19.87
2022-08-22T05:55:22.080Z,19.92
2022-08-22T05:58:02.743Z,19.97
2022-08-22T06:00:37.255Z,20.07
2022-08-22T06:03:25.670Z,20.20
2022-08-22T06:05:55.828Z,20.43
2022-08-22T06:08:33.921Z,20.62
2022-08-22T06:11:18.849Z,20.74
2022-08-22T06:14:02.977Z,20.87
2022-08-22T06:16:49.141Z,20.95
2022-08-22T06:19:20.464Z,21.04
2022-08-22T06:21:53.205Z,21.13
2022-08-22T06:24:26.808Z,21.17
2022-08-22T06:26:59.054Z,21.23
2022-08-22T06:29:35.197Z,21.32
2022-08-22T06:32:44.282Z,21.43
2022-08-22T06:35:21.119Z,21.51
2022-08-22T06:37:49.845Z,21.53
2022-08-22T06:40:18.173Z,21.55
2022-08-22T06:42:50.437Z,21.56
2022-08-22T06:45:22.055Z,21.59
2022-08-22T06:48:00.224Z,21.60
2022-08-22T06:50:34.483Z,21.59
2022-08-22T06:53:01.082Z,21.62
2022-08-22T06:55:29.871Z,21.62
2022-08-22T06:58:03.364Z,21.63
2022-08-22T07:00:33.979Z,21.66
2022-08-22T07:03:24.000Z,21.73
2022-08-22T07:05:54.538Z,21.84
2022-08-22T07:08:24.187Z,21.94
2022-08-22T07:11:21.347Z,22.01
2022-08-22T07:14:15.575Z,22.07
2022-08-22T07:17:04.418Z,22.17
2022-08-22T07:19:36.323Z,22.28
2022-08-22T07:22:13.683Z,22.35
2022-08-22T07:24:47.243Z,22.45
2022-08-22T07:27:30.243Z,22.54
2022-08-22T07:30:10.824Z,22.60
2022-08-22T07:32:57.875Z,22.66
2022-08-22T07:35:53.126Z,22.80
2022-08-22T07:38:30.117Z,22.92
2022-08-22T07:41:05.129Z,23.01
2022-08-22T07:43:39.915Z,23.13
2022-08-22T07:46:16.133Z,23.23
2022-08-22T07:49:26.568Z,23.30
2022-08-22T07:52:05.400Z,23.39
2022-08-22T07:54:36.310Z,23.50
2022-08-22T07:57:08.894Z,23.62
2022-08-22T07:59:38.619Z,23.73
2022-08-22T08:02:11.219Z,23.69
2022-08-22T08:04:40.816Z,23.69
2022-08-22T08:07:10.941Z,23.82
2022-08-22T08:09:50.642Z,24.05
2022-08-22T08:12:21.347Z,24.33
2022-08-22T08:14:52.905Z,24.67
2022-08-22T08:17:28.791Z,25.03
2022-08-22T08:20:03.329Z,25.35
2022-08-22T08:22:31.268Z,25.64
2022-08-22T08:25:00.156Z,25.87
2022-08-22T08:27:50.507Z,26.06
2022-08-22T08:30:41.075Z,26.28
2022-08-22T08:33:25.656Z,26.46
2022-08-22T08:36:06.630Z,26.59
2022-08-22T08:38:48.966Z,26.67
2022-08-22T08:41:46.205Z,26.71
2022-08-22T08:44:18.782Z,26.72
2022-08-22T08:46:55.425Z,26.79
2022-08-22T08:49:43.083Z,26.88
2022-08-22T08:52:28.732Z,26.98
2022-08-22T08:55:52.507Z,27.07
2022-08-22T08:58:33.199Z,26.94
2022-08-22T09:01:33.965Z,26.84
2022-08-22T09:04:07.043Z,26.76
2022-08-22T09:07:13.652Z,26.76
2022-08-22T09:10:05.178Z,26.76
2022-08-22T09:13:12.280Z,26.79
2022-08-22T09:15:39.527Z,26.87
2022-08-22T09:18:27.364Z,26.98
2022-08-22T09:21:12.730Z,27.08
2022-08-22T09:23:54.452Z,27.20
2022-08-22T09:26:49.457Z,27.34
2022-08-22T09:29:51.411Z,27.51
2022-08-22T09:32:36.712Z,27.59
2022-08-22T09:35:12.602Z,27.52
2022-08-22T09:37:53.038Z,27.43
2022-08-22T09:40:29.354Z,27.38
2022-08-22T09:43:24.365Z,27.25
2022-08-22T09:46:14.963Z,27.16
2022-08-22T09:48:44.181Z,27.19
2022-08-22T09:51:34.001Z,27.28
2022-08-22T09:54:00.741Z,27.40
2022-08-22T09:56:48.945Z,27.56
2022-08-22T09:59:50.684Z,27.65
2022-08-22T10:02:59.576Z,27.66
2022-08-22T10:05:40.808Z,27.73
2022-08-22T10:08:48.702Z,27.90
2022-08-22T10:11:23.989Z,28.01
2022-08-22T10:14:00.850Z,28.08
2022-08-22T10:16:38.860Z,28.22
2022-08-22T10:19:20.157Z,28.35
2022-08-22T10:22:08.728Z,28.47
2022-08-22T10:24:44.332Z,28.49
2022-08-22T10:27:19.834Z,28.41
2022-08-22T10:30:01.001Z,28.30
2022-08-22T10:32:36.730Z,28.27
2022-08-22T10:35:28.430Z,28.30
2022-08-22T10:38:13.757Z,28.35
2022-08-22T10:40:50.597Z,28.35
2022-08-22T10:43:56.438Z,28.31
2022-08-22T10:47:00.783Z,28.29
2022-08-22T10:49:38.640Z,28.42
2022-08-22T10:52:44.028Z,28.69
2022-08-22T10:55:27.012Z,28.88
2022-08-22T10:58:10.562Z,29.08
2022-08-22T11:00:51.097Z,29.31
2022-08-22T11:03:41.154Z,29.55
2022-08-22T11:06:39.842Z,29.81
2022-08-22T11:09:15.539Z,30.10
2022-08-22T11:11:47.999Z,30.35
2022-08-22T11:14:24.089Z,30.42
2022-08-22T11:17:00.719Z,30.47
2022-08-22T11:19:48.270Z,30.38
2022-08-22T11:22:31.217Z,30.35
2022-08-22T11:25:15.755Z,30.49
2022-08-22T11:28:22.912Z,30.58
2022-08-22T11:31:15.734Z,30.68
2022-08-22T11:33:55.662Z,30.81
2022-08-22T11:36:51.217Z,30.90
2022-08-22T11:39:40.059Z,30.90
2022-08-22T11:42:15.632Z,30.85
2022-08-22T11:44:50.834Z,30.96
2022-08-22T11:47:26.550Z,31.12
2022-08-22T11:50:00.885Z,31.32
2022-08-22T11:53:04.769Z,31.51
2022-08-22T11:56:05.571Z,31.61
2022-08-22T11:58:51.764Z,31.55
2022-08-22T12:01:23.129Z,31.48
2022-08-22T12:03:58.422Z,31.39
2022-08-22T12:06:34.709Z,31.45
2022-08-22T12:09:20.259Z,31.51
2022-08-22T12:12:25.626Z,31.59
2022-08-22T12:15:15.522Z,31.62
2022-08-22T12:18:10.039Z,31.61
2022-08-22T12:20:39.567Z,31.49
2022-08-22T12:23:48.530Z,31.31
2022-08-22T12:26:41.519Z,31.22
2022-08-22T12:29:45.240Z,31.39
2022-08-22T12:32:45.695Z,31.62
2022-08-22T12:35:30.647Z,31.81
2022-08-22T12:38:26.636Z,31.90
2022-08-22T12:41:28.020Z,32.06
2022-08-22T12:44:25.832Z,32.28
2022-08-22T12:47:22.311Z,32.46
2022-08-22T12:50:38.993Z,32.63
2022-08-22T12:53:22.212Z,32.69
2022-08-22T12:55:55.808Z,32.78
2022-08-22T12:58:51.156Z,32.81
2022-08-22T13:01:18.907Z,32.71
2022-08-22T13:03:56.221Z,32.69
2022-08-22T13:06:35.093Z,32.49
2022-08-22T13:09:09.840Z,32.40
2022-08-22T13:11:40.104Z,32.07
2022-08-22T13:14:09.615Z,31.97
2022-08-22T13:16:51.021Z,31.83
2022-08-22T13:19:25.398Z,31.71
2022-08-22T13:22:09.267Z,31.73
2022-08-22T13:24:40.186Z,31.70
2022-08-22T13:27:50.961Z,31.70
2022-08-22T13:30:22.951Z,31.82
2022-08-22T13:32:53.045Z,31.93
2022-08-22T13:35:39.896Z,31.95
2022-08-22T13:38:21.030Z,32.01
2022-08-22T13:40:56.154Z,32.11
2022-08-22T13:43:57.057Z,32.27
2022-08-22T13:46:29.841Z,32.44
2022-08-22T13:49:01.134Z,32.53
2022-08-22T13:51:44.470Z,32.63
2022-08-22T13:54:16.142Z,32.65
2022-08-22T13:56:51.963Z,32.65
2022-08-22T13:59:50.173Z,32.49
2022-08-22T14:02:58.358Z,32.44
2022-08-22T14:05:41.413Z,32.42
2022-08-22T14:08:31.534Z,32.49
2022-08-22T14:11:17.071Z,32.54
2022-08-22T14:13:43.776Z,32.53
2022-08-22T14:16:29.886Z,32.43
2022-08-22T14:19:06.216Z,32.45
2022-08-22T14:21:40.168Z,32.38
2022-08-22T14:24:25.734Z,32.27
2022-08-22T14:26:59.364Z,32.27
2022-08-22T14:29:50.101Z,32.34
2022-08-22T14:32:22.632Z,32.37
2022-08-22T14:34:59.626Z,32.42
2022-08-22T14:37:35.742Z,32.50
2022-08-22T14:40:29.932Z,32.26
2022-08-22T14:43:08.899Z,32.14
2022-08-22T14:45:43.317Z,32.03
2022-08-22T14:48:29.602Z,31.95
2022-08-22T14:51:04.085Z,31.85
2022-08-22T14:53:34.352Z,31.74
2022-08-22T14:56:06.383Z,31.64
2022-08-22T14:59:02.293Z,31.50
2022-08-22T15:01:32.738Z,31.33
2022-08-22T15:04:16.628Z,31.08
2022-08-22T15:06:55.316Z,30.86
2022-08-22T15:09:27.930Z,30.54
2022-08-22T15:11:54.622Z,30.31
2022-08-22T15:14:35.247Z,29.96
2022-08-22T15:17:06.703Z,29.84
2022-08-22T15:19:35.496Z,29.77
2022-08-22T15:22:11.337Z,29.72
2022-08-22T15:24:50.975Z,29.58
2022-08-22T15:27:24.715Z,29.38
2022-08-22T15:29:55.256Z,29.33
2022-08-22T15:32:26.725Z,29.30
2022-08-22T15:35:22.394Z,29.23
2022-08-22T15:38:01.694Z,29.06
2022-08-22T15:40:31.466Z,28.87
2022-08-22T15:43:10.602Z,28.72
2022-08-22T15:45:39.021Z,28.61
2022-08-22T15:48:25.131Z,28.40
2022-08-22T15:51:01.643Z,28.19
2022-08-22T15:54:16.366Z,28.05
2022-08-22T15:56:51.815Z,27.99
2022-08-22T15:59:31.272Z,28.00
2022-08-22T16:02:41.778Z,28.03
2022-08-22T16:05:08.338Z,28.04
2022-08-22T16:07:47.226Z,28.04
2022-08-22T16:10:20.827Z,27.98
2022-08-22T16:13:16.099Z,27.90
2022-08-22T16:15:54.095Z,27.82
2022-08-22T16:18:45.835Z,27.72
2022-08-22T16:21:16.730Z,27.66
2022-08-22T16:23:49.852Z,27.61
2022-08-22T16:26:39.094Z,27.54
2022-08-22T16:29:17.843Z,27.48
2022-08-22T16:31:47.914Z,27.41
2022-08-22T16:34:17.505Z,27.35
2022-08-22T16:37:02.831Z,27.29
2022-08-22T16:39:32.436Z,27.23
2022-08-22T16:42:21.902Z,27.19
2022-08-22T16:45:06.756Z,27.15
2022-08-22T16:47:33.548Z,27.12
2022-08-22T16:50:05.963Z,27.10
2022-08-22T16:52:53.981Z,27.07
2022-08-22T16:55:29.749Z,27.02
2022-08-22T16:58:07.010Z,26.96
2022-08-22T17:00:39.561Z,26.90
2022-08-22T17:03:13.835Z,26.82
2022-08-22T17:06:14.135Z,26.74
2022-08-22T17:08:53.332Z,26.66
2022-08-22T17:11:29.230Z,26.57
2022-08-22T17:14:21.554Z,26.50
2022-08-22T17:17:07.781Z,26.43
2022-08-22T17:19:39.526Z,26.34
2022-08-22T17:22:31.328Z,26.10
2022-08-22T17:25:31.812Z,25.72
2022-08-22T17:28:33.928Z,25.39
2022-08-22T17:31:24.550Z,24.82
2022-08-22T17:34:09.445Z,24.41
2022-08-22T17:36:45.411Z,23.88
2022-08-22T17:39:41.681Z,23.60
2022-08-22T17:42:35.871Z,23.20
2022-08-22T17:45:28.184Z,22.96
2022-08-22T17:48:26.120Z,22.72
2022-08-22T17:50:57.884Z,22.47
2022-08-22T17:53:49.454Z,22.29
2022-08-22T17:56:38.820Z,22.10
2022-08-22T17:59:12.902Z,21.91
2022-08-22T18:02:08.497Z,21.75
2022-08-22T18:04:52.382Z,21.58
2022-08-22T18:07:25.426Z,21.46
2022-08-22T18:10:04.268Z,21.38
2022-08-22T18:12:40.197Z,21.32
2022-08-22T18:15:54.291Z,21.28
2022-08-22T18:18:37.675Z,21.21
2022-08-22T18:21:14.674Z,21.17
2022-08-22T18:23:47.647Z,21.12
2022-08-22T18:26:38.309Z,21.07
2022-08-22T18:29:16.984Z,21.03
2022-08-22T18:32:08.344Z,20.99
2022-08-22T18:34:45.687Z,20.97
2022-08-22T18:37:17.403Z,20.93
2022-08-22T18:39:58.290Z,20.89
2022-08-22T18:42:52.305Z,20.86
2022-08-22T18:45:47.667Z,20.81
2022-08-22T18:48:33.850Z,20.76
2022-08-22T18:51:29.261Z,20.72
2022-08-22T18:54:06.287Z,20.68
2022-08-22T18:56:47.845Z,20.63
2022-08-22T18:59:24.312Z,20.58
2022-08-22T19:02:04.032Z,20.51
2022-08-22T19:05:10.441Z,20.45
2022-08-22T19:08:02.250Z,20.36
2022-08-22T19:10:33.799Z,20.29
2022-08-22T19:13:38.236Z,20.26
2022-08-22T19:16:18.081Z,20.23
2022-08-22T19:19:03.102Z,20.22
2022-08-22T19:21:51.973Z,20.19
2022-08-22T19:24:28.442Z,20.16
2022-08-22T19:27:10.455Z,20.13
2022-08-22T19:29:37.354Z,20.10
2022-08-22T19:32:06.609Z,20.08
2022-08-22T19:34:46.775Z,20.02
2022-08-22T19:37:32.255Z,19.98
2022-08-22T19:40:11.147Z,19.91
2022-08-22T19:42:40.997Z,19.85
2022-08-22T19:45:19.649Z,19.82
2022-08-22T19:48:14.477Z,19.78
2022-08-22T19:50:42.697Z,19.72
2022-08-22T19:53:46.022Z,19.68
2022-08-22T19:56:24.976Z,19.63
2022-08-22T19:59:16.117Z,19.58
2022-08-22T20:02:21.831Z,19.53
2022-08-22T20:05:07.230Z,19.49
2022-08-22T20:07:55.513Z,19.44
2022-08-22T20:10:49.927Z,19.40
2022-08-22T20:13:22.608Z,19.36
2022-08-22T20:16:17.289Z,19.35
2022-08-22T20:19:07.858Z,19.32
2022-08-22T20:21:59.892Z,19.29
2022-08-22T20:24:46.074Z,19.27
2022-08-22T20:27:21.346Z,19.23
2022-08-22T20:29:54.221Z,19.20
2022-08-22T20:32:23.756Z,19.15
2022-08-22T20:34:56.486Z,19.11
2022-08-22T20:37:40.279Z,19.05
2022-08-22T20:40:51.987Z,18.99
2022-08-22T20:43:13.500Z,18.94
2022-08-22T20:46:02.496Z,18.89
2022-08-22T20:48:39.225Z,18.85
2022-08-22T20:51:08.798Z,18.80
2022-08-22T20:53:36.062Z,18.75
2022-08-22T20:56:06.454Z,18.71
2022-08-22T20:58:39.557Z,18.68
2022-08-22T21:01:09.801Z,18.63
2022-08-22T21:03:40.333Z,18.60
2022-08-22T21:06:28.844Z,18.57
2022-08-22T21:09:30.003Z,18.52
2022-08-22T21:12:00.323Z,18.49
2022-08-22T21:14:32.738Z,18.45
2022-08-22T21:17:15.735Z,18.42
2022-08-22T21:19:42.372Z,18.38
2022-08-22T21:22:28.598Z,18.34
2022-08-22T21:24:57.716Z,18.31
2022-08-22T21:27:33.119Z,18.28
2022-08-22T21:30:03.654Z,18.26
2022-08-22T21:32:41.666Z,18.23
2022-08-22T21:35:20.545Z,18.21
2022-08-22T21:37:47.433Z,18.19
2022-08-22T21:40:35.781Z,18.17
2022-08-22T21:43:26.781Z,18.16
2022-08-22T21:45:53.484Z,18.14
2022-08-22T21:48:56.145Z,18.13
2022-08-22T21:51:31.582Z,18.11
2022-08-22T21:54:29.069Z,18.08
2022-08-22T21:57:08.182Z,18.05
2022-08-22T21:59:51.968Z,18.02
2022-08-22T22:02:39.898Z,18.00
2022-08-22T22:05:15.890Z,17.98
2022-08-22T22:07:45.646Z,17.94
2022-08-22T22:10:16.854Z,17.91
2022-08-22T22:12:46.239Z,17.88
2022-08-22T22:15:17.745Z,17.85
2022-08-22T22:17:44.495Z,17.83
2022-08-22T22:20:14.677Z,17.81
2022-08-22T22:22:46.585Z,17.77
2022-08-22T22:25:40.416Z,17.73
2022-08-22T22:28:05.979Z,17.70
2022-08-22T22:30:32.727Z,17.66
2022-08-22T22:32:59.418Z,17.63
2022-08-22T22:35:26.520Z,17.61
2022-08-22T22:37:56.048Z,17.58
2022-08-22T22:40:23.810Z,17.55
2022-08-22T22:42:50.911Z,17.53
2022-08-22T22:45:17.658Z,17.52
2022-08-22T22:47:44.333Z,17.50
2022-08-22T22:50:10.906Z,17.48
2022-08-22T22:52:40.652Z,17.44
2022-08-22T22:55:09.217Z,17.42
2022-08-22T22:57:46.795Z,17.38
2022-08-22T23:00:14.583Z,17.35
2022-08-22T23:02:41.572Z,17.32
2022-08-22T23:05:09.920Z,17.29
2022-08-22T23:07:38.167Z,17.27
2022-08-22T23:10:06.419Z,17.25
2022-08-22T23:12:35.978Z,17.22
2022-08-22T23:15:04.638Z,17.19
2022-08-22T23:17:31.972Z,17.16
2022-08-22T23:19:58.864Z,17.15
2022-08-22T23:22:25.784Z,17.13
2022-08-22T23:24:52.814Z,17.12
2022-08-22T23:27:19.425Z,17.11
2022-08-22T23:29:46.145Z,17.09
2022-08-22T23:32:13.326Z,17.08
2022-08-22T23:34:45.215Z,17.06
2022-08-22T23:37:20.617Z,17.04
2022-08-22T23:39:48.419Z,17.02
2022-08-22T23:42:17.649Z,17.00
2022-08-22T23:44:45.282Z,16.99
2022-08-22T23:47:14.226Z,16.97
2022-08-22T23:49:42.715Z,16.96
2022-08-22T23:52:11.701Z,16.94
2022-08-22T23:54:39.467Z,16.93
2022-08-22T23:57:12.247Z,16.91
2022-08-22T23:59:46.497Z,16.88
